Aberfeldy, United Kingdom
Current Conditions -  °F | °C
As of 8:20 PM on Thursday 18 Dec 2014 (Local Time) from EGPN Reporting Station
Few Clouds Few Clouds  
Wind Chill: 34°   Ceiling: Unl
Heat Index: 43°   Visibility: 6mi
Dew Point: 39°   Wind: 21mph
Humidity: 87%   Direction: 250°WSW
Pressure: 29.38"   Gusts: NA
Location:  56.62°N, 3.86°W
Report Text: EGPN 182020Z 25018KT 9999 FEW020 06/04 Q0995
Loading
Personal Weather Stations






























Interactive Weather Map New forecast layout! Learn more

10-Day Weather Forecast

Advertisements
Track Severe Weather on mobile